• Join FlightAware (Why Join?)
  • Login
  • US Flag 
11:03AM EST


 

Airport Tracker/Info


-or-


 

Live Flight TrackerFlight Track Log ✈ UAL3732 ✈ 07-Apr-2013 ✈ KORD - KIND

Flight Track Log - Related Links

Times and Time Zones

All times are in EDT time to prevent confusion due to time zone crossing. See the UAL3732 flight status page for this flight to view local times or setup timezone preferences in your user account.

Time Position Orientation Groundspeed Altitude Reporting Facility
EDT Latitude Longitude Course Direction KTS MPH feet Rate Location/Type
03:48PM 41.9333 -87.9000 166° South 177 204 1,900  Level Chicago TRACON
03:49PM 41.8833 -87.8667 154° Southeast 217 250 4,700 2,340 Climbing Chicago TRACON
03:51PM 41.7003 -87.6994 159° South  Level Estimated
03:51PM 41.7469 -87.7767 154° Southeast 293 337 8,900  Level Chicago Center
03:52PM 41.6064 -87.6307 153° Southeast  Level Estimated
03:52PM 41.6708 -87.7281 154° Southeast 302 348 11,500  Level Chicago Center
03:53PM 41.5021 -87.5991 167° South  Level FlightAware Approximate
03:53PM 41.5889 -87.6806 157° South 319 367 13,900  Level Chicago Center
03:54PM 41.4089 -87.5289 166° South  Level Estimated
03:55PM 41.5022 -87.6289 156° South 337 388 16,300  Level Chicago Center
03:56PM 41.4114 -87.5778 157° South 349 402 18,300 2,040 Climbing Chicago Center
03:57PM 41.2978 -87.5122 157° South 369 425 20,600 1,980 Climbing Chicago Center
03:58PM 41.2006 -87.4561 157° South 379 436 22,500 1,140 Climbing Chicago Center
03:59PM 41.0967 -87.3981 157° South 403 464 23,000 240 Climbing Chicago Center
04:00PM 40.9847 -87.3350 157° South 432 497 23,000  Level Chicago Center
04:01PM 40.8739 -87.2725 157° South 435 501 23,000  Level Chicago Center
04:02PM 40.7406 -87.1981 157° South 435 501 23,000  Level Chicago Center
04:03PM 40.6292 -87.1358 157° South 436 502 23,000 -60 Level Chicago Center
04:04PM 40.5250 -87.0769 157° South 436 502 22,900 -1,620 Descending Chicago Center
04:05PM 40.4147 -87.0158 157° South 429 494 19,700 -3,480 Descending Chicago Center
04:06PM 40.2900 -86.9478 157° South 415 478 15,800 -3,540 Descending Chicago Center
04:07PM 40.1892 -86.8908 157° South 396 456 12,500 -2,340 Descending Chicago Center
04:08PM 40.1103 -86.7975 138° Southeast 388 447 11,000 -780 Descending Chicago Center
04:09PM 40.0403 -86.6956 132° Southeast 374 430 11,000  Level Indianapolis Center
04:10PM 39.9703 -86.5933 132° Southeast 374 430 11,000 -540 Level Indianapolis Center
04:11PM 39.9106 -86.5022 130° Southeast 339 390 10,000 -1,380 Descending Indianapolis Center
04:12PM 39.8547 -86.4200 131° Southeast 306 352 8,200 -1,560 Descending Indianapolis Center
04:13PM 39.8061 -86.3369 127° Southeast 298 343 6,800 -1,800 Descending Indianapolis Center
04:14PM 39.8500 -86.2500 57° Northeast 276 318 4,700 -1,440 Descending Indianapolis TRACON
04:15PM 39.8833 -86.1667 62° Northeast 272 313 4,000 -480 Descending Indianapolis TRACON
04:16PM 39.8333 -86.1500 166° South 216 249 3,800 -720 Descending Indianapolis TRACON
04:17PM 39.8000 -86.2000 229° Southwest 188 216 2,600 -1,200 Descending Indianapolis TRACON